CheckWX is a tool to help pilots better visualize weather data.  It is not intended as a substitute for an official pre-flight weather briefing.

20:33:37 UTC

LFMN TAF
Nice-Côte d'Azur Airport
Nice, France
TAF LFMN 221400Z 2215/2321 20007KT CAVOK BECMG 2218/2220 33010KT BECMG 2308/2310 14005KT BECMG 2318/2320 33010KT

Mar-22@
15:00 UTC

Mar-22 @ 15:00 UTC

Mar-22@
18:00 UTC

Mar-22 @ 18:00 UTC

TAF LFMN 221400Z 2215/2321 20007KT CAVOK

Expired

Wind
  • 200° at 7 KTS
Conditions
No significant weather
Cloud Levels
  • No significant clouds

Mar-22@
18:00 UTC

Mar-22 @ 18:00 UTC

Mar-23@
08:00 UTC

Mar-23 @ 08:00 UTC

BECMG 2218/2220 33010KT

Becoming

Becoming Conditions expected by Fri, Mar 22, 2019 @ 20:00 UTC

Wind
  • 330° at 10 KTS
Conditions
No significant weather
Cloud Levels
  • No significant clouds

Mar-23@
08:00 UTC

Mar-23 @ 08:00 UTC

Mar-23@
18:00 UTC

Mar-23 @ 18:00 UTC

BECMG 2308/2310 14005KT

Becoming

Becoming Conditions expected by Sat, Mar 23, 2019 @ 10:00 UTC

Wind
  • 140° at 5 KTS
Conditions
No significant weather
Cloud Levels
  • No significant clouds

Mar-23@
18:00 UTC

Mar-23 @ 18:00 UTC

Mar-23@
21:00 UTC

Mar-23 @ 21:00 UTC

BECMG 2318/2320 33010KT

Becoming

Becoming Conditions expected by Sat, Mar 23, 2019 @ 20:00 UTC

Wind
  • 330° at 10 KTS
Conditions
No significant weather
Cloud Levels
  • No significant clouds